Time;durP1;ratioP1;P1;durP2;ratioP2;P2;SDS_P1;SDS_P2;PMS_P1;PMS_P2;Temp;Humidity;BMP_temperature;BMP_pressure;BME280_temperature;BME280_humidity;BME280_pressure;Samples;Min_cycle;Max_cycle;Signal;HPM_P1;HPM_P2
2021/04/22 00:01:45;;;;;;;55.78;45.92;;;22.40;47.10;;;;;;4747896;55;21030;-33
2021/04/22 00:06:48;;;;;;;58.53;48.03;;;22.40;46.90;;;;;;4755086;55;21125;-22
2021/04/22 00:11:50;;;;;;;54.65;45.88;;;22.40;46.80;;;;;;4780701;55;21096;-31
2021/04/22 00:16:51;;;;;;;55.03;47.58;;;22.40;47.10;;;;;;4738704;59;21006;-34
2021/04/22 00:21:52;;;;;;;54.80;46.45;;;22.40;47.00;;;;;;4762049;55;21041;-33
2021/04/22 00:26:52;;;;;;;53.97;45.47;;;22.30;46.90;;;;;;4753666;55;21034;-35
2021/04/22 00:31:53;;;;;;;55.55;45.88;;;22.40;46.80;;;;;;4739774;55;21065;-32
2021/04/22 00:36:54;;;;;;;55.30;46.00;;;22.40;46.90;;;;;;4751575;55;21508;-30
2021/04/22 00:41:55;;;;;;;55.15;45.78;;;22.40;47.00;;;;;;4757550;55;21029;-33
2021/04/22 00:46:56;;;;;;;55.20;46.15;;;22.40;46.80;;;;;;4754814;55;21021;-39
2021/04/22 00:51:57;;;;;;;53.92;45.97;;;22.40;46.70;;;;;;4744707;55;21058;-29
2021/04/22 00:56:58;;;;;;;54.10;44.95;;;22.40;46.80;;;;;;4760169;55;21128;-30
2021/04/22 01:02:07;;;;;;;51.78;43.10;;;22.40;46.80;;;;;;4773939;55;21164;-32
2021/04/22 01:07:07;;;;;;;51.67;44.45;;;22.40;46.80;;;;;;4743147;55;21034;-32
2021/04/22 01:12:12;;;;;;;51.67;44.40;;;22.40;46.90;;;;;;4739247;55;21049;-28
2021/04/22 01:17:13;;;;;;;54.67;45.38;;;22.40;46.80;;;;;;4757110;55;20990;-30
2021/04/22 01:22:14;;;;;;;53.35;43.65;;;22.40;46.80;;;;;;4738573;55;21129;-30
2021/04/22 01:27:14;;;;;;;51.22;44.63;;;22.40;46.60;;;;;;4739610;55;21078;-31
2021/04/22 01:32:15;;;;;;;52.90;44.22;;;22.40;46.70;;;;;;4738905;55;21805;-32
2021/04/22 01:37:16;;;;;;;53.08;43.97;;;22.40;46.70;;;;;;4775272;55;21532;-32
2021/04/22 01:42:17;;;;;;;51.13;43.22;;;22.30;46.60;;;;;;4842837;55;21069;-28
2021/04/22 01:47:18;;;;;;;51.20;43.08;;;22.30;46.60;;;;;;4738407;59;20998;-28
2021/04/22 01:52:18;;;;;;;48.85;40.10;;;22.40;46.70;;;;;;4737474;59;21104;-30
2021/04/22 01:57:19;;;;;;;50.45;41.20;;;22.40;46.60;;;;;;4742114;55;20990;-31
2021/04/22 02:02:20;;;;;;;48.58;41.33;;;22.40;46.60;;;;;;4768284;55;21002;-30
2021/04/22 02:07:21;;;;;;;49.05;41.58;;;22.40;46.60;;;;;;4738706;55;21053;-31
2021/04/22 02:12:22;;;;;;;47.28;38.90;;;22.40;46.50;;;;;;4737990;59;21500;-29
2021/04/22 02:17:23;;;;;;;50.28;40.00;;;22.30;46.50;;;;;;4743711;55;21101;-34
2021/04/22 02:22:23;;;;;;;50.42;41.65;;;22.40;47.10;;;;;;4821337;55;21585;-31
2021/04/22 02:27:24;;;;;;;47.10;39.22;;;22.40;46.50;;;;;;4745840;55;21070;-28
2021/04/22 02:32:25;;;;;;;48.40;40.80;;;22.40;46.40;;;;;;4762616;55;21058;-37
2021/04/22 02:37:26;;;;;;;45.55;38.20;;;22.40;46.40;;;;;;4738277;59;21062;-33
2021/04/22 02:42:27;;;;;;;44.92;38.58;;;22.30;46.50;;;;;;4739659;55;21499;-29
2021/04/22 02:47:28;;;;;;;45.95;38.42;;;22.40;46.40;;;;;;4737850;59;21045;-31
2021/04/22 02:52:29;;;;;;;44.75;37.47;;;22.30;46.30;;;;;;4766345;55;21089;-31
2021/04/22 02:57:29;;;;;;;45.20;37.65;;;22.30;46.20;;;;;;4772802;55;20998;-30
2021/04/22 03:02:30;;;;;;;47.53;38.72;;;22.30;46.40;;;;;;4772696;55;21022;-31
2021/04/22 03:07:31;;;;;;;44.28;37.42;;;22.30;46.40;;;;;;4793938;55;21029;-29
2021/04/22 03:12:32;;;;;;;42.95;35.85;;;22.30;46.20;;;;;;4747883;55;21030;-30
2021/04/22 03:17:34;;;;;;;45.08;38.05;;;22.30;46.30;;;;;;4765533;55;21127;-29
2021/04/22 03:22:35;;;;;;;44.90;36.72;;;22.30;46.10;;;;;;4763289;55;21017;-29
2021/04/22 03:27:36;;;;;;;44.53;36.60;;;22.30;46.10;;;;;;4848217;55;20998;-31
2021/04/22 03:32:37;;;;;;;43.65;36.75;;;22.30;46.10;;;;;;4747307;55;21468;-29
2021/04/22 03:37:39;;;;;;;41.40;35.78;;;22.30;46.20;;;;;;4747400;55;21093;-32
2021/04/22 03:42:40;;;;;;;43.13;36.50;;;22.30;46.10;;;;;;4783643;55;21018;-28
2021/04/22 03:47:42;;;;;;;42.35;35.72;;;22.30;46.20;;;;;;4758655;55;21803;-29
2021/04/22 03:52:44;;;;;;;43.25;36.15;;;22.30;46.20;;;;;;4753741;55;21516;-28
2021/04/22 03:57:45;;;;;;;42.70;35.95;;;22.30;46.10;;;;;;4747549;55;20994;-31
2021/04/22 04:02:46;;;;;;;41.30;35.28;;;22.30;46.10;;;;;;4769881;55;21001;-31
2021/04/22 04:07:47;;;;;;;43.58;34.28;;;22.30;46.10;;;;;;4745358;55;20979;-24
2021/04/22 04:12:48;;;;;;;39.88;34.67;;;22.30;46.10;;;;;;4770750;55;21492;-29
2021/04/22 04:17:49;;;;;;;41.20;34.15;;;22.30;46.10;;;;;;4770858;55;21054;-31
2021/04/22 04:22:49;;;;;;;40.85;34.63;;;22.30;46.10;;;;;;4753702;55;21002;-32
2021/04/22 04:27:50;;;;;;;40.67;34.13;;;22.30;46.00;;;;;;4753118;55;20998;-31
2021/04/22 04:32:51;;;;;;;44.00;35.72;;;22.30;46.30;;;;;;4800152;55;21082;-28
2021/04/22 04:37:52;;;;;;;40.95;33.45;;;22.30;46.20;;;;;;4739245;59;20990;-32
2021/04/22 04:42:54;;;;;;;42.90;34.50;;;22.20;46.00;;;;;;4745861;55;20982;-30
2021/04/22 04:47:54;;;;;;;40.45;33.35;;;22.20;46.10;;;;;;4756309;55;21539;-32
2021/04/22 04:52:56;;;;;;;39.42;33.08;;;22.20;46.20;;;;;;4744530;55;21066;-30
2021/04/22 04:57:57;;;;;;;40.75;33.55;;;22.30;46.30;;;;;;4744581;55;21133;-34
2021/04/22 05:02:57;;;;;;;37.03;32.80;;;22.20;46.30;;;;;;4774150;55;21582;-30
2021/04/22 05:07:58;;;;;;;38.92;31.90;;;22.30;46.30;;;;;;4756127;55;20997;-34
2021/04/22 05:12:59;;;;;;;39.42;32.88;;;22.20;46.30;;;;;;4740046;55;21107;-24
2021/04/22 05:18:00;;;;;;;38.17;31.87;;;22.20;46.30;;;;;;4820294;55;21491;-32
2021/04/22 05:23:01;;;;;;;39.28;32.92;;;22.20;46.20;;;;;;4783889;55;21050;-26
2021/04/22 05:28:02;;;;;;;38.90;31.50;;;22.20;46.20;;;;;;4744658;55;21468;-34
2021/04/22 05:33:03;;;;;;;37.97;30.83;;;22.20;46.10;;;;;;4737696;55;21014;-32
2021/04/22 05:38:05;;;;;;;35.35;30.55;;;22.20;46.20;;;;;;4744398;55;21106;-36
2021/04/22 05:43:07;;;;;;;36.75;31.17;;;22.20;46.10;;;;;;4763554;55;21615;-27
2021/04/22 05:48:09;;;;;;;36.75;31.23;;;22.20;46.00;;;;;;4738397;59;21528;-32
2021/04/22 05:53:10;;;;;;;38.50;31.85;;;22.20;45.90;;;;;;4765476;55;21014;-30
2021/04/22 05:58:11;;;;;;;36.55;31.25;;;22.20;45.90;;;;;;4775390;55;21085;-36
2021/04/22 06:03:12;;;;;;;37.63;31.05;;;22.20;45.80;;;;;;4737358;59;21042;-37
2021/04/22 06:08:13;;;;;;;36.20;30.52;;;22.20;45.80;;;;;;4765109;55;20994;-31
2021/04/22 06:13:14;;;;;;;36.17;30.77;;;22.20;45.80;;;;;;4740872;55;21022;-34
2021/04/22 06:18:14;;;;;;;35.83;30.25;;;22.20;45.80;;;;;;4738133;59;21448;-30
2021/04/22 06:23:15;;;;;;;37.03;30.52;;;22.20;45.80;;;;;;4742355;55;21014;-29
2021/04/22 06:28:16;;;;;;;35.80;31.35;;;22.20;45.80;;;;;;4743254;55;21002;-34
2021/04/22 06:33:17;;;;;;;38.03;31.10;;;22.20;45.70;;;;;;4767105;55;21017;-28
2021/04/22 06:38:18;;;;;;;36.50;31.42;;;22.20;45.60;;;;;;4771218;55;21026;-30
2021/04/22 06:43:19;;;;;;;37.67;30.73;;;22.20;45.70;;;;;;4753021;55;21010;-32
2021/04/22 06:48:19;;;;;;;38.38;31.75;;;22.20;45.60;;;;;;4738143;59;21493;-23
2021/04/22 06:53:20;;;;;;;38.42;31.67;;;22.20;45.70;;;;;;4745061;55;21153;-34
2021/04/22 06:58:21;;;;;;;39.47;32.42;;;22.20;45.60;;;;;;4771169;55;21009;-35
2021/04/22 07:03:22;;;;;;;38.47;32.35;;;22.20;45.50;;;;;;4744408;55;21517;-30
2021/04/22 07:08:23;;;;;;;41.03;33.63;;;22.20;45.50;;;;;;4773074;55;21029;-37
2021/04/22 07:13:23;;;;;;;38.53;32.25;;;22.30;45.90;;;;;;4787404;55;21045;-28
2021/04/22 07:18:24;;;;;;;40.90;32.92;;;22.40;45.80;;;;;;4786737;55;20998;-31
2021/04/22 07:23:27;;;;;;;40.42;32.63;;;22.30;45.90;;;;;;4764405;55;21978;-32
2021/04/22 07:28:28;;;;;;;39.90;33.85;;;22.40;46.00;;;;;;4787582;55;21471;-36
2021/04/22 07:33:29;;;;;;;41.90;33.40;;;22.50;46.20;;;;;;4739108;55;21965;-36
2021/04/22 07:38:30;;;;;;;38.92;32.22;;;22.50;46.90;;;;;;4753378;55;21037;-34
2021/04/22 07:43:31;;;;;;;40.95;34.15;;;22.60;46.40;;;;;;4745536;55;21049;-32
2021/04/22 07:48:35;;;;;;;39.50;33.25;;;22.60;46.60;;;;;;4746877;55;21065;-31
2021/04/22 07:53:35;;;;;;;37.95;32.45;;;22.60;46.60;;;;;;4756092;55;21041;-34
2021/04/22 07:58:36;;;;;;;38.58;31.40;;;22.60;46.70;;;;;;4738033;59;20997;-32
2021/04/22 08:03:37;;;;;;;39.20;33.08;;;22.70;46.90;;;;;;4774380;55;21022;-33
2021/04/22 08:08:38;;;;;;;38.63;32.70;;;22.70;46.90;;;;;;4783437;55;21453;-36
2021/04/22 08:13:39;;;;;;;39.72;34.15;;;22.70;47.50;;;;;;4735286;55;21029;-25
2021/04/22 08:18:40;;;;;;;41.85;32.40;;;22.70;46.80;;;;;;4743077;55;21026;-27
2021/04/22 08:23:40;;;;;;;39.38;32.42;;;22.70;46.90;;;;;;4744441;55;21022;-32
2021/04/22 08:28:41;;;;;;;41.78;33.33;;;22.80;47.00;;;;;;4744449;55;22260;-35
2021/04/22 08:33:42;;;;;;;40.65;32.78;;;22.80;47.00;;;;;;4752932;55;21061;-29
2021/04/22 08:38:43;;;;;;;45.83;37.05;;;22.80;47.00;;;;;;4742707;55;21536;-31
2021/04/22 08:43:44;;;;;;;47.78;37.90;;;22.80;46.90;;;;;;4738350;55;21445;-32
2021/04/22 08:48:48;;;;;;;46.78;37.50;;;22.80;47.00;;;;;;4744004;55;21033;-29
2021/04/22 08:53:50;;;;;;;46.67;36.17;;;22.90;47.30;;;;;;4787853;55;20998;-30
2021/04/22 08:58:52;;;;;;;44.85;36.53;;;22.90;47.30;;;;;;4741291;55;21058;-35
2021/04/22 09:03:53;;;;;;;48.25;36.42;;;23.00;47.40;;;;;;4736658;59;21118;-35
2021/04/22 09:08:54;;;;;;;41.05;35.00;;;23.00;47.50;;;;;;4751668;55;21469;-27
2021/04/22 09:13:56;;;;;;;43.35;36.10;;;23.00;47.50;;;;;;4749532;55;21080;-32
2021/04/22 09:19:06;;;;;;;44.50;36.78;;;23.00;47.50;;;;;;4758908;55;20990;-26
2021/04/22 09:24:13;;;;;;;45.65;36.10;;;23.00;47.60;;;;;;4779382;55;21097;-27
2021/04/22 09:29:28;;;;;;;50.80;34.33;;;23.10;47.80;;;;;;4758217;55;21021;-26
2021/04/22 09:34:30;;;;;;;44.03;36.28;;;23.10;47.90;;;;;;4757643;55;21013;-26
2021/04/22 09:39:34;;;;;;;46.80;37.50;;;23.10;48.00;;;;;;4767329;55;21100;-32
2021/04/22 09:44:36;;;;;;;44.45;36.28;;;23.10;48.00;;;;;;4775725;55;21002;-29
2021/04/22 09:49:55;;;;;;;47.80;37.05;;;23.10;48.00;;;;;;4748646;55;20994;-33
2021/04/22 09:54:56;;;;;;;43.40;37.30;;;23.20;48.20;;;;;;4796688;55;21552;-30
2021/04/22 09:59:59;;;;;;;44.92;37.15;;;23.20;48.20;;;;;;4758215;55;21058;-34
2021/04/22 10:04:59;;;;;;;47.95;38.28;;;23.20;48.30;;;;;;4780981;55;22092;-26
2021/04/22 10:10:12;;;;;;;45.80;37.92;;;23.20;48.40;;;;;;4741071;55;21144;-31
2021/04/22 10:15:23;;;;;;;45.85;37.72;;;23.20;48.40;;;;;;4762424;55;21077;-30
2021/04/22 10:20:26;;;;;;;47.75;37.72;;;23.30;48.50;;;;;;4737966;59;21105;-37
2021/04/22 10:25:30;;;;;;;50.12;39.33;;;23.30;48.50;;;;;;4768781;55;20994;-35
2021/04/22 10:30:31;;;;;;;45.72;37.78;;;23.30;48.60;;;;;;4786171;55;21175;-35
2021/04/22 10:35:35;;;;;;;48.20;37.97;;;23.30;48.70;;;;;;4742264;55;21018;-35
2021/04/22 10:40:42;;;;;;;50.12;37.10;;;23.30;48.60;;;;;;4758660;55;21066;-30
2021/04/22 10:45:44;;;;;;;45.58;37.67;;;23.30;48.80;;;;;;4776890;55;21010;-34
2021/04/22 10:50:48;;;;;;;45.42;36.55;;;23.30;48.80;;;;;;4749204;55;21044;-29
2021/04/22 10:55:51;;;;;;;45.75;36.58;;;23.30;48.80;;;;;;4769346;55;21033;-29
2021/04/22 11:00:59;;;;;;;44.30;36.50;;;23.40;48.90;;;;;;4770775;55;21092;-32
2021/04/22 11:06:12;;;;;;;47.60;38.35;;;23.40;49.00;;;;;;4755327;55;21532;-28
2021/04/22 11:11:41;;;;;;;44.63;37.35;;;23.40;49.00;;;;;;4763978;55;21069;-33
2021/04/22 11:16:53;;;;;;;45.45;37.50;;;23.40;49.10;;;;;;4746526;55;21037;-35
2021/04/22 11:22:01;;;;;;;47.50;39.03;;;23.40;48.50;;;;;;4737835;55;20982;-25
2021/04/22 11:27:03;;;;;;;;;;;23.40;48.30;;;;;;4766208;55;20982;-34
2021/04/22 11:33:00;;;;;;;47.75;38.13;;;23.40;48.10;;;;;;4741053;55;20140;-29
2021/04/22 11:38:07;;;;;;;44.10;36.80;;;23.30;48.10;;;;;;4784872;55;21033;-33
2021/04/22 11:43:24;;;;;;;48.67;39.35;;;23.30;48.10;;;;;;4738429;59;21551;-36
2021/04/22 11:48:40;;;;;;;45.33;37.95;;;23.30;48.10;;;;;;4742032;55;21086;-36
2021/04/22 11:53:47;;;;;;;46.90;39.38;;;23.20;48.10;;;;;;4767694;55;21013;-31
2021/04/22 11:58:49;;;;;;;46.58;38.65;;;23.30;47.70;;;;;;4755928;55;21798;-36
2021/04/22 12:03:50;;;;;;;43.55;37.30;;;23.30;47.60;;;;;;4750470;55;21496;-38
2021/04/22 12:08:51;;;;;;;47.65;38.67;;;23.30;48.30;;;;;;4756176;55;21065;-23
2021/04/22 12:13:52;;;;;;;49.90;41.05;;;23.30;47.60;;;;;;4796034;55;21647;-28
2021/04/22 12:18:53;;;;;;;48.13;39.13;;;23.40;47.70;;;;;;4800130;55;21480;-28
2021/04/22 12:23:58;;;;;;;47.95;39.60;;;23.40;48.10;;;;;;4778337;55;21436;-29
2021/04/22 12:29:08;;;;;;;46.67;38.95;;;23.40;47.80;;;;;;4778185;55;21511;-32
2021/04/22 12:34:22;;;;;;;47.25;38.10;;;23.40;47.80;;;;;;4742113;55;21563;-31
2021/04/22 12:39:31;;;;;;;47.58;40.78;;;23.40;47.90;;;;;;4753677;55;21539;-36
2021/04/22 12:44:32;;;;;;;46.60;37.40;;;23.50;47.90;;;;;;4770685;55;22383;-33
2021/04/22 12:49:34;;;;;;;46.28;38.83;;;23.50;48.00;;;;;;4762561;55;21949;-35
2021/04/22 12:54:35;;;;;;;46.63;38.30;;;23.50;48.00;;;;;;4779423;55;21005;-35
2021/04/22 12:59:45;;;;;;;48.97;37.55;;;23.50;48.00;;;;;;4739785;55;21029;-33
2021/04/22 13:05:00;;;;;;;45.72;37.17;;;23.50;48.10;;;;;;4742534;55;21635;-27
2021/04/22 13:10:09;;;;;;;42.95;35.85;;;23.50;48.20;;;;;;4755127;55;20978;-34
2021/04/22 13:15:13;;;;;;;43.20;35.47;;;23.50;48.20;;;;;;4754970;55;21006;-32
2021/04/22 13:20:23;;;;;;;43.03;35.92;;;23.50;48.00;;;;;;4800399;55;21005;-27
2021/04/22 13:25:31;;;;;;;45.50;37.30;;;23.50;47.90;;;;;;4739875;55;21472;-30
2021/04/22 13:30:33;;;;;;;44.60;34.50;;;23.50;47.90;;;;;;4761658;55;21116;-33
2021/04/22 13:35:35;;;;;;;45.28;36.83;;;23.50;47.90;;;;;;4749532;55;20982;-28
2021/04/22 13:40:36;;;;;;;40.22;34.78;;;23.50;47.90;;;;;;4755566;55;21105;-34
2021/04/22 13:45:37;;;;;;;40.83;35.00;;;23.50;47.90;;;;;;4749970;55;20998;-38
2021/04/22 13:50:39;;;;;;;41.95;34.17;;;23.50;47.90;;;;;;4738400;55;21111;-31
2021/04/22 13:55:58;;;;;;;40.80;35.30;;;23.50;47.90;;;;;;4773801;55;21057;-34
2021/04/22 14:00:59;;;;;;;43.17;35.17;;;23.50;47.90;;;;;;4737812;55;21093;-27
2021/04/22 14:06:00;;;;;;;39.13;33.13;;;23.50;47.90;;;;;;4743942;55;21141;-36
2021/04/22 14:11:15;;;;;;;38.65;33.97;;;23.50;47.90;;;;;;4738063;55;21065;-35
2021/04/22 14:16:21;;;;;;;42.28;34.80;;;23.50;47.90;;;;;;4760648;55;21037;-35
2021/04/22 14:21:22;;;;;;;41.23;34.30;;;23.40;47.90;;;;;;4761009;55;22199;-32
2021/04/22 14:26:23;;;;;;;44.05;33.13;;;23.40;47.90;;;;;;4797615;55;21006;-37
2021/04/22 14:31:24;;;;;;;38.88;33.78;;;23.40;47.90;;;;;;4739886;55;21523;-37
2021/04/22 14:36:25;;;;;;;38.25;33.53;;;23.40;47.90;;;;;;4737223;59;20994;-32
2021/04/22 14:41:26;;;;;;;42.42;34.08;;;23.40;47.90;;;;;;4747643;55;21010;-31
2021/04/22 14:46:26;;;;;;;38.00;32.70;;;23.40;47.90;;;;;;4767526;55;21025;-31
2021/04/22 14:51:27;;;;;;;37.22;32.35;;;23.50;48.00;;;;;;4768599;55;21002;-29
2021/04/22 14:56:29;;;;;;;38.92;33.53;;;23.40;47.90;;;;;;4739136;55;21508;-37
2021/04/22 15:01:30;;;;;;;37.28;33.17;;;23.40;47.90;;;;;;4737440;59;21089;-37
2021/04/22 15:06:34;;;;;;;39.15;33.60;;;23.40;48.10;;;;;;4737328;55;21038;-39
2021/04/22 15:11:35;;;;;;;41.50;34.28;;;23.30;47.90;;;;;;4784786;55;21049;-37
2021/04/22 15:16:36;;;;;;;38.65;33.45;;;23.30;48.00;;;;;;4758805;55;21563;-38
2021/04/22 15:21:36;;;;;;;42.62;33.85;;;23.30;48.10;;;;;;4773482;55;21049;-30
2021/04/22 15:26:37;;;;;;;38.00;33.33;;;23.20;47.80;;;;;;4744138;55;21009;-34
2021/04/22 15:31:38;;;;;;;37.47;32.72;;;23.30;47.60;;;;;;4737684;59;21548;-27
2021/04/22 15:36:39;;;;;;;39.45;33.50;;;23.20;47.60;;;;;;4746362;55;21010;-33
2021/04/22 15:41:40;;;;;;;45.12;32.90;;;23.20;47.50;;;;;;4741602;55;21519;-29
2021/04/22 15:46:41;;;;;;;42.40;34.90;;;23.10;47.50;;;;;;4748969;55;21002;-34
2021/04/22 15:51:42;;;;;;;38.65;33.33;;;23.10;47.40;;;;;;4736874;59;21014;-34
2021/04/22 15:56:43;;;;;;;39.33;35.05;;;23.10;47.40;;;;;;4742110;55;21486;-27
2021/04/22 16:01:44;;;;;;;39.03;33.17;;;23.00;47.40;;;;;;4765628;55;21085;-36
2021/04/22 16:06:45;;;;;;;38.63;32.55;;;23.00;47.40;;;;;;4752476;55;21089;-25
2021/04/22 16:11:46;;;;;;;40.58;33.80;;;23.00;47.30;;;;;;4741164;55;21034;-21
2021/04/22 16:16:47;;;;;;;40.47;33.10;;;23.00;47.30;;;;;;4782381;55;21021;-35
2021/04/22 16:21:48;;;;;;;37.58;32.63;;;23.00;47.20;;;;;;4737903;59;21025;-30
2021/04/22 16:26:48;;;;;;;36.35;31.42;;;22.90;47.10;;;;;;4738222;59;21002;-28
2021/04/22 16:31:50;;;;;;;37.65;32.30;;;23.00;47.10;;;;;;4763004;55;21202;-35
2021/04/22 16:36:51;;;;;;;38.80;33.28;;;23.00;47.20;;;;;;4767855;55;20998;-33
2021/04/22 16:41:56;;;;;;;38.63;33.72;;;22.90;47.00;;;;;;4772278;55;21017;-32
2021/04/22 16:46:57;;;;;;;39.85;33.20;;;22.90;46.90;;;;;;4787107;55;21544;-29
2021/04/22 16:51:58;;;;;;;40.17;34.03;;;22.90;47.00;;;;;;4737110;59;21018;-26
2021/04/22 16:56:59;;;;;;;39.45;34.67;;;22.90;46.90;;;;;;4807975;55;21037;-36
2021/04/22 17:02:00;;;;;;;38.65;33.05;;;22.90;46.90;;;;;;4808557;55;21026;-31
2021/04/22 17:07:00;;;;;;;41.13;35.88;;;22.90;46.80;;;;;;4785246;55;21604;-32
2021/04/22 17:12:02;;;;;;;40.35;35.40;;;22.90;46.80;;;;;;4740082;55;21025;-37
2021/04/22 17:17:05;;;;;;;41.50;35.70;;;22.80;46.70;;;;;;4738393;59;21026;-26
2021/04/22 17:22:06;;;;;;;42.17;35.38;;;22.80;46.60;;;;;;4738373;59;22343;-31
2021/04/22 17:27:07;;;;;;;41.60;35.10;;;22.80;46.60;;;;;;4768215;55;21121;-29
2021/04/22 17:32:08;;;;;;;41.50;35.38;;;22.80;46.60;;;;;;4781310;55;21117;-29
2021/04/22 17:37:09;;;;;;;42.42;34.95;;;22.80;46.50;;;;;;4748595;55;21113;-35
2021/04/22 17:42:10;;;;;;;42.67;37.15;;;22.80;46.50;;;;;;4762559;55;21029;-28
2021/04/22 17:47:10;;;;;;;42.25;37.10;;;22.80;46.40;;;;;;4760578;55;21041;-27
2021/04/22 17:52:11;;;;;;;41.65;36.30;;;22.80;46.40;;;;;;4740456;55;21374;-36
2021/04/22 17:57:12;;;;;;;43.20;36.70;;;22.80;46.40;;;;;;4755041;55;21464;-24
2021/04/22 18:02:13;;;;;;;40.70;35.35;;;22.80;46.40;;;;;;4758557;55;21046;-34
2021/04/22 18:07:14;;;;;;;45.45;39.10;;;22.80;46.30;;;;;;4783763;55;21030;-37
2021/04/22 18:12:15;;;;;;;41.13;35.65;;;22.80;46.20;;;;;;4786399;55;21066;-32
2021/04/22 18:17:15;;;;;;;42.25;36.97;;;22.80;46.20;;;;;;4763617;55;21022;-25
2021/04/22 18:22:16;;;;;;;43.47;36.90;;;22.80;46.10;;;;;;4775434;55;21508;-26
2021/04/22 18:27:17;;;;;;;44.33;37.38;;;22.70;46.10;;;;;;4761469;55;21022;-30
2021/04/22 18:32:18;;;;;;;42.28;36.85;;;22.80;46.10;;;;;;4760988;55;21109;-27
2021/04/22 18:37:19;;;;;;;48.47;38.70;;;22.80;46.00;;;;;;4743021;55;21070;-19
2021/04/22 18:42:20;;;;;;;43.95;37.53;;;22.80;46.00;;;;;;4741415;55;21011;-28
2021/04/22 18:47:25;;;;;;;44.53;38.33;;;22.70;45.90;;;;;;4745850;55;21088;-25
2021/04/22 18:52:26;;;;;;;44.75;37.00;;;22.70;45.90;;;;;;4778760;55;22382;-36
2021/04/22 18:57:27;;;;;;;43.13;36.80;;;22.70;45.90;;;;;;4738425;55;21026;-36
2021/04/22 19:02:28;;;;;;;45.35;39.08;;;22.70;45.90;;;;;;4783409;55;21081;-36
2021/04/22 19:07:28;;;;;;;44.95;37.92;;;22.70;45.80;;;;;;4737702;59;21070;-27
2021/04/22 19:12:29;;;;;;;45.03;37.28;;;22.80;45.90;;;;;;4759525;55;21013;-35
2021/04/22 19:17:30;;;;;;;45.38;38.70;;;22.70;45.80;;;;;;4783952;55;21010;-33
2021/04/22 19:22:31;;;;;;;45.28;38.55;;;22.70;45.80;;;;;;4738630;59;21013;-27
2021/04/22 19:27:32;;;;;;;45.63;38.25;;;22.70;45.80;;;;;;4758209;55;20998;-29
2021/04/22 19:32:38;;;;;;;43.17;36.63;;;22.70;46.50;;;;;;4797291;55;22358;-37
2021/04/22 19:37:42;;;;;;;45.50;37.25;;;22.70;45.70;;;;;;4738172;59;21488;-33
2021/04/22 19:42:44;;;;;;;44.60;38.03;;;22.70;45.80;;;;;;4771518;55;21551;-32
2021/04/22 19:47:46;;;;;;;46.47;39.20;;;22.70;45.70;;;;;;4793604;55;21066;-33
2021/04/22 19:52:47;;;;;;;45.60;37.70;;;22.70;45.70;;;;;;4780201;55;21520;-28
2021/04/22 19:57:48;;;;;;;49.05;40.08;;;22.70;45.70;;;;;;4738036;59;21026;-34
2021/04/22 20:02:58;;;;;;;46.83;39.00;;;22.70;45.60;;;;;;4737919;56;21579;-34
2021/04/22 20:08:00;;;;;;;46.88;38.22;;;22.70;45.70;;;;;;4757244;55;21034;-33
2021/04/22 20:13:04;;;;;;;47.42;39.17;;;22.70;45.60;;;;;;4763651;55;21723;-33
2021/04/22 20:18:06;;;;;;;46.67;38.55;;;22.70;45.60;;;;;;4795873;55;21124;-36
2021/04/22 20:23:06;;;;;;;47.45;39.35;;;22.70;45.70;;;;;;4774452;55;20982;-26
2021/04/22 20:28:08;;;;;;;47.47;39.92;;;22.70;45.70;;;;;;4749686;55;21034;-37
2021/04/22 20:33:10;;;;;;;49.08;39.08;;;22.70;45.60;;;;;;4798751;55;21125;-29
2021/04/22 20:38:19;;;;;;;47.28;39.22;;;22.70;45.60;;;;;;4806954;55;21025;-36
2021/04/22 20:43:23;;;;;;;46.25;38.20;;;22.70;45.60;;;;;;4759003;55;21591;-32
2021/04/22 20:48:25;;;;;;;47.58;38.75;;;22.70;45.60;;;;;;4755269;55;21017;-37
2021/04/22 20:53:26;;;;;;;46.45;38.67;;;22.70;45.60;;;;;;4768443;55;21543;-29
2021/04/22 20:58:28;;;;;;;49.92;39.65;;;22.70;45.50;;;;;;4753666;55;21030;-36
2021/04/22 21:03:28;;;;;;;47.05;38.50;;;22.70;45.50;;;;;;4754588;55;21093;-37
2021/04/22 21:08:29;;;;;;;45.78;37.42;;;22.70;45.60;;;;;;4744201;55;21002;-25
2021/04/22 21:13:30;;;;;;;49.60;40.05;;;22.70;45.50;;;;;;4737182;59;21053;-37
2021/04/22 21:18:31;;;;;;;46.72;38.50;;;22.70;45.40;;;;;;4772227;55;21050;-29
2021/04/22 21:23:35;;;;;;;44.83;37.38;;;22.70;45.50;;;;;;4780449;55;21045;-29
2021/04/22 21:28:36;;;;;;;47.72;37.97;;;22.70;45.50;;;;;;4769432;55;21034;-28
2021/04/22 21:33:37;;;;;;;46.00;36.97;;;22.70;45.60;;;;;;4772149;55;21002;-38
2021/04/22 21:38:38;;;;;;;45.67;37.58;;;22.70;45.50;;;;;;4747526;55;21002;-37
2021/04/22 21:43:39;;;;;;;44.58;36.20;;;22.70;45.50;;;;;;4776902;55;21014;-33
2021/04/22 21:48:39;;;;;;;42.65;35.85;;;22.70;45.50;;;;;;4751009;55;21151;-32
2021/04/22 21:53:40;;;;;;;42.03;35.03;;;22.70;45.50;;;;;;4779534;55;21453;-36
2021/04/22 21:58:41;;;;;;;43.92;37.25;;;22.60;45.50;;;;;;4738579;59;21006;-31
2021/04/22 22:03:42;;;;;;;43.05;35.47;;;22.70;45.40;;;;;;4748900;55;21088;-36
2021/04/22 22:08:43;;;;;;;43.20;35.33;;;22.70;45.60;;;;;;4793169;55;21013;-36
2021/04/22 22:13:44;;;;;;;41.50;34.28;;;22.70;45.40;;;;;;4772069;55;21082;-28
2021/04/22 22:18:48;;;;;;;42.95;35.20;;;22.60;45.40;;;;;;4774236;55;21061;-37
2021/04/22 22:23:51;;;;;;;41.88;33.75;;;22.70;45.50;;;;;;4747669;55;21097;-37
2021/04/22 22:28:52;;;;;;;39.58;33.15;;;22.70;45.50;;;;;;4772639;55;21045;-35
2021/04/22 22:33:53;;;;;;;40.40;32.53;;;22.60;45.40;;;;;;4742888;55;21063;-29
2021/04/22 22:38:54;;;;;;;40.17;34.15;;;22.60;45.40;;;;;;4749184;55;21104;-34
2021/04/22 22:43:55;;;;;;;40.55;33.30;;;22.60;45.40;;;;;;4747877;55;21014;-29
2021/04/22 22:48:56;;;;;;;42.20;33.05;;;22.70;45.40;;;;;;4743141;55;21488;-35
2021/04/22 22:53:57;;;;;;;39.97;33.15;;;22.70;45.50;;;;;;4785487;55;21073;-36
2021/04/22 22:58:58;;;;;;;38.88;31.20;;;22.70;45.40;;;;;;4748399;55;21077;-37
2021/04/22 23:03:59;;;;;;;39.13;32.50;;;22.60;46.00;;;;;;4749784;55;21042;-25
2021/04/22 23:09:00;;;;;;;36.58;30.88;;;22.60;45.40;;;;;;4746782;55;22175;-36
2021/04/22 23:14:02;;;;;;;36.55;30.52;;;22.60;45.40;;;;;;4754440;55;21009;-37
2021/04/22 23:19:04;;;;;;;36.58;30.98;;;22.60;45.40;;;;;;4738700;55;21112;-31
2021/04/22 23:24:05;;;;;;;35.72;29.65;;;22.60;45.40;;;;;;4762459;55;21053;-36
2021/04/22 23:29:06;;;;;;;34.28;29.40;;;22.60;45.40;;;;;;4843173;55;21006;-31
2021/04/22 23:34:07;;;;;;;33.35;28.38;;;22.60;45.50;;;;;;4781729;55;21485;-37
2021/04/22 23:39:08;;;;;;;36.05;29.92;;;22.70;45.40;;;;;;4738312;59;21516;-28
2021/04/22 23:44:09;;;;;;;34.97;29.45;;;22.60;45.50;;;;;;4824781;55;20990;-38
2021/04/22 23:49:10;;;;;;;35.65;29.48;;;22.60;45.40;;;;;;4819098;55;21085;-31
2021/04/22 23:54:10;;;;;;;33.17;28.50;;;22.60;45.40;;;;;;4757592;55;21506;-36
2021/04/22 23:59:11;;;;;;;34.17;27.92;;;22.60;45.40;;;;;;4775692;55;20998;-31
